sensor_id;sensor_type;location;lat;lon;timestamp;P1;durP1;ratioP1;P2;durP2;ratioP2
14474;SDS011;7323;50.848;4.334;2024-03-25T00:00:17;10.30;;;7.20;;
14474;SDS011;7323;50.848;4.334;2024-03-25T00:02:43;10.00;;;6.77;;
14474;SDS011;7323;50.848;4.334;2024-03-25T00:05:09;10.87;;;7.93;;
14474;SDS011;7323;50.848;4.334;2024-03-25T00:07:38;13.20;;;6.90;;
14474;SDS011;7323;50.848;4.334;2024-03-25T00:10:04;9.97;;;7.17;;
14474;SDS011;7323;50.848;4.334;2024-03-25T00:12:34;11.40;;;7.10;;
14474;SDS011;7323;50.848;4.334;2024-03-25T00:15:00;9.40;;;7.00;;
14474;SDS011;7323;50.848;4.334;2024-03-25T00:17:26;10.07;;;7.60;;
14474;SDS011;7323;50.848;4.334;2024-03-25T00:19:52;9.80;;;7.87;;
14474;SDS011;7323;50.848;4.334;2024-03-25T00:22:18;10.93;;;6.60;;
14474;SDS011;7323;50.848;4.334;2024-03-25T00:24:45;8.47;;;7.27;;
14474;SDS011;7323;50.848;4.334;2024-03-25T00:27:11;12.80;;;7.27;;
14474;SDS011;7323;50.848;4.334;2024-03-25T00:29:40;8.97;;;7.00;;
14474;SDS011;7323;50.848;4.334;2024-03-25T00:32:07;9.50;;;6.77;;
14474;SDS011;7323;50.848;4.334;2024-03-25T00:34:34;9.67;;;6.40;;
14474;SDS011;7323;50.848;4.334;2024-03-25T00:37:02;7.93;;;6.40;;
14474;SDS011;7323;50.848;4.334;2024-03-25T00:39:29;8.43;;;6.50;;
14474;SDS011;7323;50.848;4.334;2024-03-25T00:41:58;9.93;;;5.83;;
14474;SDS011;7323;50.848;4.334;2024-03-25T00:44:24;8.10;;;6.57;;
14474;SDS011;7323;50.848;4.334;2024-03-25T00:46:49;9.17;;;6.27;;
14474;SDS011;7323;50.848;4.334;2024-03-25T00:49:16;9.87;;;6.93;;
14474;SDS011;7323;50.848;4.334;2024-03-25T00:51:42;10.40;;;7.17;;
14474;SDS011;7323;50.848;4.334;2024-03-25T00:54:07;9.03;;;6.60;;
14474;SDS011;7323;50.848;4.334;2024-03-25T00:56:33;10.13;;;6.70;;
14474;SDS011;7323;50.848;4.334;2024-03-25T00:58:59;10.47;;;7.30;;
14474;SDS011;7323;50.848;4.334;2024-03-25T01:01:34;8.90;;;6.87;;
14474;SDS011;7323;50.848;4.334;2024-03-25T01:04:01;11.00;;;7.20;;
14474;SDS011;7323;50.848;4.334;2024-03-25T01:06:27;8.83;;;6.97;;
14474;SDS011;7323;50.848;4.334;2024-03-25T01:08:52;12.40;;;7.53;;
14474;SDS011;7323;50.848;4.334;2024-03-25T01:11:18;11.10;;;7.10;;
14474;SDS011;7323;50.848;4.334;2024-03-25T01:13:44;9.30;;;6.67;;
14474;SDS011;7323;50.848;4.334;2024-03-25T01:16:11;13.13;;;7.50;;
14474;SDS011;7323;50.848;4.334;2024-03-25T01:18:37;10.20;;;7.83;;
14474;SDS011;7323;50.848;4.334;2024-03-25T01:21:03;11.60;;;7.43;;
14474;SDS011;7323;50.848;4.334;2024-03-25T01:23:29;9.40;;;6.93;;
14474;SDS011;7323;50.848;4.334;2024-03-25T01:25:55;13.67;;;8.10;;
14474;SDS011;7323;50.848;4.334;2024-03-25T01:28:21;8.70;;;7.30;;
14474;SDS011;7323;50.848;4.334;2024-03-25T01:30:47;10.13;;;7.70;;
14474;SDS011;7323;50.848;4.334;2024-03-25T01:33:13;9.87;;;6.80;;
14474;SDS011;7323;50.848;4.334;2024-03-25T01:35:40;9.20;;;7.03;;
14474;SDS011;7323;50.848;4.334;2024-03-25T01:38:06;9.97;;;7.03;;
14474;SDS011;7323;50.848;4.334;2024-03-25T01:40:32;11.17;;;6.80;;
14474;SDS011;7323;50.848;4.334;2024-03-25T01:43:02;12.80;;;7.33;;
14474;SDS011;7323;50.848;4.334;2024-03-25T01:45:29;11.47;;;7.40;;
14474;SDS011;7323;50.848;4.334;2024-03-25T01:47:56;10.33;;;7.70;;
14474;SDS011;7323;50.848;4.334;2024-03-25T01:50:24;10.67;;;8.10;;
14474;SDS011;7323;50.848;4.334;2024-03-25T01:52:50;11.23;;;7.43;;
14474;SDS011;7323;50.848;4.334;2024-03-25T01:55:24;10.70;;;7.67;;
14474;SDS011;7323;50.848;4.334;2024-03-25T01:57:53;10.23;;;8.03;;
14474;SDS011;7323;50.848;4.334;2024-03-25T02:00:19;11.83;;;7.30;;
14474;SDS011;7323;50.848;4.334;2024-03-25T02:02:46;12.33;;;7.47;;
14474;SDS011;7323;50.848;4.334;2024-03-25T02:05:15;10.10;;;7.07;;
14474;SDS011;7323;50.848;4.334;2024-03-25T02:07:43;11.50;;;8.10;;
14474;SDS011;7323;50.848;4.334;2024-03-25T02:10:09;11.37;;;7.83;;
14474;SDS011;7323;50.848;4.334;2024-03-25T02:12:36;11.10;;;7.07;;
14474;SDS011;7323;50.848;4.334;2024-03-25T02:15:03;10.93;;;7.80;;
14474;SDS011;7323;50.848;4.334;2024-03-25T02:17:30;9.60;;;7.67;;
14474;SDS011;7323;50.848;4.334;2024-03-25T02:19:56;13.13;;;7.53;;
14474;SDS011;7323;50.848;4.334;2024-03-25T02:22:22;11.23;;;7.97;;
14474;SDS011;7323;50.848;4.334;2024-03-25T02:24:49;13.53;;;8.43;;
14474;SDS011;7323;50.848;4.334;2024-03-25T02:27:17;12.53;;;7.47;;
14474;SDS011;7323;50.848;4.334;2024-03-25T02:29:43;11.43;;;7.10;;
14474;SDS011;7323;50.848;4.334;2024-03-25T02:32:09;14.77;;;7.40;;
14474;SDS011;7323;50.848;4.334;2024-03-25T02:34:39;12.80;;;7.30;;
14474;SDS011;7323;50.848;4.334;2024-03-25T02:37:12;12.73;;;7.33;;
14474;SDS011;7323;50.848;4.334;2024-03-25T02:39:38;15.10;;;7.33;;
14474;SDS011;7323;50.848;4.334;2024-03-25T02:42:05;10.87;;;6.83;;
14474;SDS011;7323;50.848;4.334;2024-03-25T02:44:31;11.27;;;7.20;;
14474;SDS011;7323;50.848;4.334;2024-03-25T02:46:58;11.53;;;7.13;;
14474;SDS011;7323;50.848;4.334;2024-03-25T02:49:24;11.63;;;6.83;;
14474;SDS011;7323;50.848;4.334;2024-03-25T02:51:50;9.47;;;6.70;;
14474;SDS011;7323;50.848;4.334;2024-03-25T02:54:16;12.83;;;7.57;;
14474;SDS011;7323;50.848;4.334;2024-03-25T02:56:42;12.17;;;6.93;;
14474;SDS011;7323;50.848;4.334;2024-03-25T02:59:10;10.33;;;6.60;;
14474;SDS011;7323;50.848;4.334;2024-03-25T03:01:35;11.07;;;7.13;;
14474;SDS011;7323;50.848;4.334;2024-03-25T03:04:01;11.50;;;7.00;;
14474;SDS011;7323;50.848;4.334;2024-03-25T03:06:26;10.20;;;7.53;;
14474;SDS011;7323;50.848;4.334;2024-03-25T03:08:52;12.53;;;7.43;;
14474;SDS011;7323;50.848;4.334;2024-03-25T03:11:18;12.80;;;7.50;;
14474;SDS011;7323;50.848;4.334;2024-03-25T03:13:43;14.30;;;7.93;;
14474;SDS011;7323;50.848;4.334;2024-03-25T03:16:09;9.07;;;7.10;;
14474;SDS011;7323;50.848;4.334;2024-03-25T03:18:35;14.90;;;8.10;;
14474;SDS011;7323;50.848;4.334;2024-03-25T03:21:00;12.93;;;8.37;;
14474;SDS011;7323;50.848;4.334;2024-03-25T03:23:26;11.43;;;8.60;;
14474;SDS011;7323;50.848;4.334;2024-03-25T03:25:52;14.97;;;7.93;;
14474;SDS011;7323;50.848;4.334;2024-03-25T03:28:18;13.10;;;8.93;;
14474;SDS011;7323;50.848;4.334;2024-03-25T03:30:43;15.27;;;8.60;;
14474;SDS011;7323;50.848;4.334;2024-03-25T03:33:09;19.63;;;8.70;;
14474;SDS011;7323;50.848;4.334;2024-03-25T03:35:35;15.83;;;8.67;;
14474;SDS011;7323;50.848;4.334;2024-03-25T03:38:01;15.27;;;8.80;;
14474;SDS011;7323;50.848;4.334;2024-03-25T03:40:28;13.80;;;8.73;;
14474;SDS011;7323;50.848;4.334;2024-03-25T03:42:54;15.00;;;7.90;;
14474;SDS011;7323;50.848;4.334;2024-03-25T03:45:21;19.80;;;9.83;;
14474;SDS011;7323;50.848;4.334;2024-03-25T03:47:49;18.90;;;10.17;;
14474;SDS011;7323;50.848;4.334;2024-03-25T03:50:15;17.93;;;8.73;;
14474;SDS011;7323;50.848;4.334;2024-03-25T03:52:41;19.63;;;8.87;;
14474;SDS011;7323;50.848;4.334;2024-03-25T03:55:06;18.67;;;10.10;;
14474;SDS011;7323;50.848;4.334;2024-03-25T03:57:32;21.93;;;9.63;;
14474;SDS011;7323;50.848;4.334;2024-03-25T03:59:58;16.13;;;9.97;;
14474;SDS011;7323;50.848;4.334;2024-03-25T04:02:24;18.27;;;10.93;;
14474;SDS011;7323;50.848;4.334;2024-03-25T04:04:51;20.03;;;11.43;;
14474;SDS011;7323;50.848;4.334;2024-03-25T04:07:16;25.80;;;11.47;;
14474;SDS011;7323;50.848;4.334;2024-03-25T04:09:42;21.03;;;11.47;;
14474;SDS011;7323;50.848;4.334;2024-03-25T04:12:08;20.03;;;11.57;;
14474;SDS011;7323;50.848;4.334;2024-03-25T04:14:34;20.40;;;11.83;;
14474;SDS011;7323;50.848;4.334;2024-03-25T04:16:59;25.63;;;12.10;;
14474;SDS011;7323;50.848;4.334;2024-03-25T04:19:25;24.47;;;12.40;;
14474;SDS011;7323;50.848;4.334;2024-03-25T04:21:55;23.03;;;12.47;;
14474;SDS011;7323;50.848;4.334;2024-03-25T04:24:21;21.70;;;11.70;;
14474;SDS011;7323;50.848;4.334;2024-03-25T04:26:47;26.03;;;13.27;;
14474;SDS011;7323;50.848;4.334;2024-03-25T04:29:15;23.20;;;13.27;;
14474;SDS011;7323;50.848;4.334;2024-03-25T04:31:41;26.30;;;12.07;;
14474;SDS011;7323;50.848;4.334;2024-03-25T04:34:06;24.93;;;13.37;;
14474;SDS011;7323;50.848;4.334;2024-03-25T04:36:32;29.33;;;13.47;;
14474;SDS011;7323;50.848;4.334;2024-03-25T04:38:58;28.27;;;14.93;;
14474;SDS011;7323;50.848;4.334;2024-03-25T04:41:23;25.43;;;14.43;;
14474;SDS011;7323;50.848;4.334;2024-03-25T04:43:49;26.30;;;13.30;;
14474;SDS011;7323;50.848;4.334;2024-03-25T04:46:14;26.13;;;14.00;;
14474;SDS011;7323;50.848;4.334;2024-03-25T04:48:40;22.70;;;14.47;;
14474;SDS011;7323;50.848;4.334;2024-03-25T04:51:06;26.50;;;13.33;;
14474;SDS011;7323;50.848;4.334;2024-03-25T04:53:34;30.33;;;13.87;;
14474;SDS011;7323;50.848;4.334;2024-03-25T04:55:59;30.53;;;14.53;;
14474;SDS011;7323;50.848;4.334;2024-03-25T04:58:25;29.13;;;15.50;;
14474;SDS011;7323;50.848;4.334;2024-03-25T05:00:51;22.10;;;15.37;;
14474;SDS011;7323;50.848;4.334;2024-03-25T05:03:17;27.03;;;16.53;;
14474;SDS011;7323;50.848;4.334;2024-03-25T05:05:43;32.03;;;16.67;;
14474;SDS011;7323;50.848;4.334;2024-03-25T05:08:09;26.77;;;14.97;;
14474;SDS011;7323;50.848;4.334;2024-03-25T05:10:35;27.47;;;16.20;;
14474;SDS011;7323;50.848;4.334;2024-03-25T05:13:00;28.23;;;14.63;;
14474;SDS011;7323;50.848;4.334;2024-03-25T05:15:26;27.67;;;16.70;;
14474;SDS011;7323;50.848;4.334;2024-03-25T05:17:51;27.67;;;16.27;;
14474;SDS011;7323;50.848;4.334;2024-03-25T05:20:17;29.40;;;15.53;;
14474;SDS011;7323;50.848;4.334;2024-03-25T05:22:43;31.07;;;16.13;;
14474;SDS011;7323;50.848;4.334;2024-03-25T05:25:09;29.07;;;15.73;;
14474;SDS011;7323;50.848;4.334;2024-03-25T05:27:35;27.60;;;16.40;;
14474;SDS011;7323;50.848;4.334;2024-03-25T05:30:00;31.07;;;15.90;;
14474;SDS011;7323;50.848;4.334;2024-03-25T05:32:26;30.17;;;16.93;;
14474;SDS011;7323;50.848;4.334;2024-03-25T05:34:52;35.60;;;17.83;;
14474;SDS011;7323;50.848;4.334;2024-03-25T05:37:17;27.83;;;16.70;;
14474;SDS011;7323;50.848;4.334;2024-03-25T05:39:43;31.37;;;18.17;;
14474;SDS011;7323;50.848;4.334;2024-03-25T05:42:09;30.83;;;17.13;;
14474;SDS011;7323;50.848;4.334;2024-03-25T05:44:35;30.77;;;17.67;;
14474;SDS011;7323;50.848;4.334;2024-03-25T05:47:00;31.27;;;18.20;;
14474;SDS011;7323;50.848;4.334;2024-03-25T05:49:26;34.37;;;19.00;;
14474;SDS011;7323;50.848;4.334;2024-03-25T05:51:52;33.90;;;17.70;;
14474;SDS011;7323;50.848;4.334;2024-03-25T05:54:17;31.47;;;17.67;;
14474;SDS011;7323;50.848;4.334;2024-03-25T05:56:44;30.43;;;17.47;;
14474;SDS011;7323;50.848;4.334;2024-03-25T05:59:09;34.40;;;17.60;;
14474;SDS011;7323;50.848;4.334;2024-03-25T06:01:35;32.40;;;18.43;;
14474;SDS011;7323;50.848;4.334;2024-03-25T06:04:02;28.77;;;16.73;;
14474;SDS011;7323;50.848;4.334;2024-03-25T06:06:28;35.30;;;16.70;;
14474;SDS011;7323;50.848;4.334;2024-03-25T06:08:54;36.93;;;17.00;;
14474;SDS011;7323;50.848;4.334;2024-03-25T06:11:20;30.13;;;17.10;;
14474;SDS011;7323;50.848;4.334;2024-03-25T06:13:46;29.27;;;15.90;;
14474;SDS011;7323;50.848;4.334;2024-03-25T06:16:12;25.97;;;16.67;;
14474;SDS011;7323;50.848;4.334;2024-03-25T06:18:39;26.17;;;15.50;;
14474;SDS011;7323;50.848;4.334;2024-03-25T06:21:05;30.03;;;14.93;;
14474;SDS011;7323;50.848;4.334;2024-03-25T06:23:31;29.20;;;15.37;;
14474;SDS011;7323;50.848;4.334;2024-03-25T06:25:57;32.67;;;16.10;;
14474;SDS011;7323;50.848;4.334;2024-03-25T06:28:23;34.37;;;22.37;;
14474;SDS011;7323;50.848;4.334;2024-03-25T06:30:49;30.67;;;16.53;;
14474;SDS011;7323;50.848;4.334;2024-03-25T06:33:34;27.73;;;13.90;;
14474;SDS011;7323;50.848;4.334;2024-03-25T06:36:19;27.47;;;14.77;;
14474;SDS011;7323;50.848;4.334;2024-03-25T06:38:45;29.97;;;15.17;;
14474;SDS011;7323;50.848;4.334;2024-03-25T06:41:11;27.43;;;14.40;;
14474;SDS011;7323;50.848;4.334;2024-03-25T06:43:37;28.63;;;14.87;;
14474;SDS011;7323;50.848;4.334;2024-03-25T06:46:03;24.87;;;13.80;;
14474;SDS011;7323;50.848;4.334;2024-03-25T06:48:36;25.53;;;13.60;;
14474;SDS011;7323;50.848;4.334;2024-03-25T06:51:02;34.07;;;13.53;;
14474;SDS011;7323;50.848;4.334;2024-03-25T06:53:29;22.83;;;13.43;;
14474;SDS011;7323;50.848;4.334;2024-03-25T06:55:56;24.93;;;14.30;;
14474;SDS011;7323;50.848;4.334;2024-03-25T06:58:24;27.47;;;13.67;;
14474;SDS011;7323;50.848;4.334;2024-03-25T07:00:51;25.37;;;14.30;;
14474;SDS011;7323;50.848;4.334;2024-03-25T07:03:17;25.50;;;13.00;;
14474;SDS011;7323;50.848;4.334;2024-03-25T07:05:44;25.83;;;13.00;;
14474;SDS011;7323;50.848;4.334;2024-03-25T07:08:11;25.10;;;13.67;;
14474;SDS011;7323;50.848;4.334;2024-03-25T07:10:37;26.50;;;12.53;;
14474;SDS011;7323;50.848;4.334;2024-03-25T07:13:03;26.63;;;13.03;;
14474;SDS011;7323;50.848;4.334;2024-03-25T07:15:30;25.23;;;14.47;;
14474;SDS011;7323;50.848;4.334;2024-03-25T07:17:56;24.33;;;12.70;;
14474;SDS011;7323;50.848;4.334;2024-03-25T07:20:23;20.20;;;12.77;;
14474;SDS011;7323;50.848;4.334;2024-03-25T07:22:48;21.97;;;11.30;;
14474;SDS011;7323;50.848;4.334;2024-03-25T07:25:14;23.10;;;11.60;;
14474;SDS011;7323;50.848;4.334;2024-03-25T07:27:40;17.23;;;11.00;;
14474;SDS011;7323;50.848;4.334;2024-03-25T07:30:07;20.67;;;11.37;;
14474;SDS011;7323;50.848;4.334;2024-03-25T07:32:33;20.37;;;11.07;;
14474;SDS011;7323;50.848;4.334;2024-03-25T07:34:59;19.30;;;10.57;;
14474;SDS011;7323;50.848;4.334;2024-03-25T07:37:25;19.37;;;10.57;;
14474;SDS011;7323;50.848;4.334;2024-03-25T07:39:51;22.50;;;11.30;;
14474;SDS011;7323;50.848;4.334;2024-03-25T07:42:17;20.53;;;12.50;;
14474;SDS011;7323;50.848;4.334;2024-03-25T07:44:43;23.87;;;10.73;;
14474;SDS011;7323;50.848;4.334;2024-03-25T07:47:09;19.37;;;10.00;;
14474;SDS011;7323;50.848;4.334;2024-03-25T07:49:35;18.47;;;9.87;;
14474;SDS011;7323;50.848;4.334;2024-03-25T07:52:01;20.50;;;10.40;;
14474;SDS011;7323;50.848;4.334;2024-03-25T07:54:27;16.77;;;9.37;;
14474;SDS011;7323;50.848;4.334;2024-03-25T07:56:53;22.07;;;9.83;;
14474;SDS011;7323;50.848;4.334;2024-03-25T07:59:19;22.30;;;9.80;;
14474;SDS011;7323;50.848;4.334;2024-03-25T08:01:45;15.80;;;8.93;;
14474;SDS011;7323;50.848;4.334;2024-03-25T08:04:10;16.63;;;9.50;;
14474;SDS011;7323;50.848;4.334;2024-03-25T08:06:36;20.70;;;8.77;;
14474;SDS011;7323;50.848;4.334;2024-03-25T08:09:02;15.93;;;8.80;;
14474;SDS011;7323;50.848;4.334;2024-03-25T08:11:31;19.97;;;9.17;;
14474;SDS011;7323;50.848;4.334;2024-03-25T08:13:57;20.17;;;8.57;;
14474;SDS011;7323;50.848;4.334;2024-03-25T08:16:23;20.30;;;9.97;;
14474;SDS011;7323;50.848;4.334;2024-03-25T08:18:49;21.80;;;10.83;;
14474;SDS011;7323;50.848;4.334;2024-03-25T08:21:15;19.47;;;9.13;;
14474;SDS011;7323;50.848;4.334;2024-03-25T08:23:44;20.40;;;9.07;;
14474;SDS011;7323;50.848;4.334;2024-03-25T08:26:10;19.50;;;10.13;;
14474;SDS011;7323;50.848;4.334;2024-03-25T08:28:36;22.37;;;8.97;;
14474;SDS011;7323;50.848;4.334;2024-03-25T08:31:02;12.80;;;8.47;;
14474;SDS011;7323;50.848;4.334;2024-03-25T08:33:28;18.20;;;8.70;;
14474;SDS011;7323;50.848;4.334;2024-03-25T08:35:54;20.20;;;9.10;;
14474;SDS011;7323;50.848;4.334;2024-03-25T08:38:20;17.00;;;8.97;;
14474;SDS011;7323;50.848;4.334;2024-03-25T08:40:46;21.03;;;9.17;;
14474;SDS011;7323;50.848;4.334;2024-03-25T08:43:12;17.67;;;9.23;;
14474;SDS011;7323;50.848;4.334;2024-03-25T08:45:38;17.43;;;9.43;;
14474;SDS011;7323;50.848;4.334;2024-03-25T08:48:03;18.37;;;9.13;;
14474;SDS011;7323;50.848;4.334;2024-03-25T08:50:29;17.83;;;8.30;;
14474;SDS011;7323;50.848;4.334;2024-03-25T08:52:55;18.37;;;9.00;;
14474;SDS011;7323;50.848;4.334;2024-03-25T08:55:21;16.80;;;8.97;;
14474;SDS011;7323;50.848;4.334;2024-03-25T08:57:46;17.60;;;9.80;;
14474;SDS011;7323;50.848;4.334;2024-03-25T09:00:12;17.53;;;8.90;;
14474;SDS011;7323;50.848;4.334;2024-03-25T09:02:38;15.50;;;8.70;;
14474;SDS011;7323;50.848;4.334;2024-03-25T09:05:04;14.60;;;8.63;;
14474;SDS011;7323;50.848;4.334;2024-03-25T09:07:31;16.33;;;8.57;;
14474;SDS011;7323;50.848;4.334;2024-03-25T09:09:56;17.93;;;8.33;;
14474;SDS011;7323;50.848;4.334;2024-03-25T09:12:41;17.43;;;8.07;;
14474;SDS011;7323;50.848;4.334;2024-03-25T09:15:06;16.27;;;7.97;;
14474;SDS011;7323;50.848;4.334;2024-03-25T09:17:32;16.13;;;7.87;;
14474;SDS011;7323;50.848;4.334;2024-03-25T09:19:58;13.90;;;8.00;;
14474;SDS011;7323;50.848;4.334;2024-03-25T09:22:23;15.17;;;7.83;;
14474;SDS011;7323;50.848;4.334;2024-03-25T09:24:49;16.43;;;8.13;;
14474;SDS011;7323;50.848;4.334;2024-03-25T09:27:15;16.97;;;8.17;;
14474;SDS011;7323;50.848;4.334;2024-03-25T09:29:43;13.10;;;8.23;;
14474;SDS011;7323;50.848;4.334;2024-03-25T09:32:09;14.03;;;7.87;;
14474;SDS011;7323;50.848;4.334;2024-03-25T09:34:34;13.93;;;7.90;;
14474;SDS011;7323;50.848;4.334;2024-03-25T09:37:00;13.53;;;7.30;;
14474;SDS011;7323;50.848;4.334;2024-03-25T09:39:26;13.00;;;7.30;;
14474;SDS011;7323;50.848;4.334;2024-03-25T09:41:54;12.50;;;7.33;;
14474;SDS011;7323;50.848;4.334;2024-03-25T09:44:24;14.33;;;6.63;;
14474;SDS011;7323;50.848;4.334;2024-03-25T09:46:50;13.07;;;6.80;;
14474;SDS011;7323;50.848;4.334;2024-03-25T09:49:16;14.00;;;7.43;;
14474;SDS011;7323;50.848;4.334;2024-03-25T09:51:42;13.07;;;6.83;;
14474;SDS011;7323;50.848;4.334;2024-03-25T09:54:08;12.90;;;7.30;;
14474;SDS011;7323;50.848;4.334;2024-03-25T09:56:35;14.67;;;6.90;;
14474;SDS011;7323;50.848;4.334;2024-03-25T09:59:02;11.17;;;6.87;;
14474;SDS011;7323;50.848;4.334;2024-03-25T10:01:28;13.30;;;6.80;;
14474;SDS011;7323;50.848;4.334;2024-03-25T10:03:54;11.53;;;6.40;;
14474;SDS011;7323;50.848;4.334;2024-03-25T10:06:20;12.33;;;7.37;;
14474;SDS011;7323;50.848;4.334;2024-03-25T10:08:46;14.17;;;7.13;;
14474;SDS011;7323;50.848;4.334;2024-03-25T10:11:12;15.10;;;6.97;;
14474;SDS011;7323;50.848;4.334;2024-03-25T10:13:40;14.83;;;6.97;;
14474;SDS011;7323;50.848;4.334;2024-03-25T10:16:06;11.10;;;7.20;;
14474;SDS011;7323;50.848;4.334;2024-03-25T10:18:32;12.50;;;6.50;;
14474;SDS011;7323;50.848;4.334;2024-03-25T10:20:58;10.57;;;6.03;;
14474;SDS011;7323;50.848;4.334;2024-03-25T10:23:24;11.67;;;5.70;;
14474;SDS011;7323;50.848;4.334;2024-03-25T10:25:53;13.70;;;5.50;;
14474;SDS011;7323;50.848;4.334;2024-03-25T10:28:19;13.23;;;5.47;;
14474;SDS011;7323;50.848;4.334;2024-03-25T10:30:45;7.70;;;5.23;;
14474;SDS011;7323;50.848;4.334;2024-03-25T10:33:12;11.37;;;5.40;;
14474;SDS011;7323;50.848;4.334;2024-03-25T10:35:38;9.03;;;4.70;;
14474;SDS011;7323;50.848;4.334;2024-03-25T10:38:06;7.17;;;3.73;;
14474;SDS011;7323;50.848;4.334;2024-03-25T10:40:35;8.90;;;4.27;;
14474;SDS011;7323;50.848;4.334;2024-03-25T10:43:08;10.00;;;4.50;;
14474;SDS011;7323;50.848;4.334;2024-03-25T10:45:42;9.33;;;4.40;;
14474;SDS011;7323;50.848;4.334;2024-03-25T10:48:26;10.63;;;4.10;;
14474;SDS011;7323;50.848;4.334;2024-03-25T10:50:54;7.03;;;4.10;;
14474;SDS011;7323;50.848;4.334;2024-03-25T10:53:21;5.87;;;3.73;;
14474;SDS011;7323;50.848;4.334;2024-03-25T10:55:55;6.20;;;3.17;;
14474;SDS011;7323;50.848;4.334;2024-03-25T10:58:21;7.63;;;3.90;;
14474;SDS011;7323;50.848;4.334;2024-03-25T11:00:51;8.47;;;3.53;;
14474;SDS011;7323;50.848;4.334;2024-03-25T11:03:21;8.30;;;3.53;;
14474;SDS011;7323;50.848;4.334;2024-03-25T11:05:48;7.07;;;3.50;;
14474;SDS011;7323;50.848;4.334;2024-03-25T11:08:15;6.20;;;3.17;;
14474;SDS011;7323;50.848;4.334;2024-03-25T11:10:45;7.30;;;2.90;;
14474;SDS011;7323;50.848;4.334;2024-03-25T11:13:12;6.60;;;2.93;;
14474;SDS011;7323;50.848;4.334;2024-03-25T11:15:45;7.13;;;3.43;;
14474;SDS011;7323;50.848;4.334;2024-03-25T11:18:12;6.00;;;2.63;;
14474;SDS011;7323;50.848;4.334;2024-03-25T11:20:39;5.80;;;2.50;;
14474;SDS011;7323;50.848;4.334;2024-03-25T11:23:09;7.13;;;2.73;;
14474;SDS011;7323;50.848;4.334;2024-03-25T11:25:36;5.03;;;2.70;;
14474;SDS011;7323;50.848;4.334;2024-03-25T11:28:02;6.20;;;2.80;;
14474;SDS011;7323;50.848;4.334;2024-03-25T11:30:29;5.07;;;2.80;;
14474;SDS011;7323;50.848;4.334;2024-03-25T11:32:56;4.70;;;2.57;;
14474;SDS011;7323;50.848;4.334;2024-03-25T11:35:23;5.57;;;2.70;;
14474;SDS011;7323;50.848;4.334;2024-03-25T11:37:49;5.13;;;2.40;;
14474;SDS011;7323;50.848;4.334;2024-03-25T11:40:17;7.27;;;2.37;;
14474;SDS011;7323;50.848;4.334;2024-03-25T11:42:43;5.30;;;2.50;;
14474;SDS011;7323;50.848;4.334;2024-03-25T11:45:20;5.23;;;2.33;;
14474;SDS011;7323;50.848;4.334;2024-03-25T11:47:46;6.03;;;2.47;;
14474;SDS011;7323;50.848;4.334;2024-03-25T11:50:17;6.90;;;2.90;;
14474;SDS011;7323;50.848;4.334;2024-03-25T11:52:43;4.77;;;2.10;;
14474;SDS011;7323;50.848;4.334;2024-03-25T11:55:09;5.60;;;2.30;;
14474;SDS011;7323;50.848;4.334;2024-03-25T11:57:36;4.63;;;2.57;;
14474;SDS011;7323;50.848;4.334;2024-03-25T12:00:03;5.17;;;2.67;;
14474;SDS011;7323;50.848;4.334;2024-03-25T12:02:35;6.10;;;2.40;;
14474;SDS011;7323;50.848;4.334;2024-03-25T12:05:02;8.63;;;2.40;;
14474;SDS011;7323;50.848;4.334;2024-03-25T12:07:30;5.10;;;2.77;;
14474;SDS011;7323;50.848;4.334;2024-03-25T12:09:58;5.73;;;2.70;;
14474;SDS011;7323;50.848;4.334;2024-03-25T12:12:42;8.63;;;4.30;;
14474;SDS011;7323;50.848;4.334;2024-03-25T12:15:10;6.70;;;3.10;;
14474;SDS011;7323;50.848;4.334;2024-03-25T12:17:36;7.17;;;3.47;;
14474;SDS011;7323;50.848;4.334;2024-03-25T12:22:29;5.93;;;3.23;;
14474;SDS011;7323;50.848;4.334;2024-03-25T12:25:02;6.50;;;2.87;;
14474;SDS011;7323;50.848;4.334;2024-03-25T12:27:31;6.40;;;3.17;;
14474;SDS011;7323;50.848;4.334;2024-03-25T12:30:00;5.93;;;2.93;;
14474;SDS011;7323;50.848;4.334;2024-03-25T12:32:39;6.30;;;2.93;;
14474;SDS011;7323;50.848;4.334;2024-03-25T12:35:06;4.47;;;2.53;;
14474;SDS011;7323;50.848;4.334;2024-03-25T12:37:33;4.83;;;2.63;;
14474;SDS011;7323;50.848;4.334;2024-03-25T12:39:59;5.23;;;2.40;;
14474;SDS011;7323;50.848;4.334;2024-03-25T12:42:25;6.23;;;2.43;;
14474;SDS011;7323;50.848;4.334;2024-03-25T12:44:54;6.10;;;2.53;;
14474;SDS011;7323;50.848;4.334;2024-03-25T12:47:20;7.07;;;2.80;;
14474;SDS011;7323;50.848;4.334;2024-03-25T12:49:46;5.07;;;2.00;;
14474;SDS011;7323;50.848;4.334;2024-03-25T12:52:11;4.80;;;2.40;;
14474;SDS011;7323;50.848;4.334;2024-03-25T12:54:37;4.60;;;2.20;;
14474;SDS011;7323;50.848;4.334;2024-03-25T12:57:04;6.07;;;3.07;;
14474;SDS011;7323;50.848;4.334;2024-03-25T12:59:30;5.13;;;2.23;;
14474;SDS011;7323;50.848;4.334;2024-03-25T13:01:56;4.23;;;1.93;;
14474;SDS011;7323;50.848;4.334;2024-03-25T13:04:22;4.77;;;1.80;;
14474;SDS011;7323;50.848;4.334;2024-03-25T13:06:47;5.40;;;2.27;;
14474;SDS011;7323;50.848;4.334;2024-03-25T13:09:13;5.17;;;2.13;;
14474;SDS011;7323;50.848;4.334;2024-03-25T13:11:38;6.27;;;2.30;;
14474;SDS011;7323;50.848;4.334;2024-03-25T13:14:04;5.23;;;1.83;;
14474;SDS011;7323;50.848;4.334;2024-03-25T13:16:33;6.80;;;2.10;;
14474;SDS011;7323;50.848;4.334;2024-03-25T13:18:59;5.00;;;1.77;;
14474;SDS011;7323;50.848;4.334;2024-03-25T13:21:25;4.30;;;1.93;;
14474;SDS011;7323;50.848;4.334;2024-03-25T13:23:51;4.20;;;1.83;;
14474;SDS011;7323;50.848;4.334;2024-03-25T13:26:17;3.20;;;1.40;;
14474;SDS011;7323;50.848;4.334;2024-03-25T13:28:43;3.73;;;1.60;;
14474;SDS011;7323;50.848;4.334;2024-03-25T13:31:08;4.30;;;1.90;;
14474;SDS011;7323;50.848;4.334;2024-03-25T13:33:34;4.20;;;1.97;;
14474;SDS011;7323;50.848;4.334;2024-03-25T13:36:02;3.87;;;1.67;;
14474;SDS011;7323;50.848;4.334;2024-03-25T13:38:29;5.47;;;1.70;;
14474;SDS011;7323;50.848;4.334;2024-03-25T13:40:55;4.97;;;2.07;;
14474;SDS011;7323;50.848;4.334;2024-03-25T13:43:20;4.43;;;1.90;;
14474;SDS011;7323;50.848;4.334;2024-03-25T13:45:47;5.10;;;1.50;;
14474;SDS011;7323;50.848;4.334;2024-03-25T13:48:14;4.40;;;1.90;;
14474;SDS011;7323;50.848;4.334;2024-03-25T13:50:40;4.47;;;1.80;;
14474;SDS011;7323;50.848;4.334;2024-03-25T13:53:07;4.17;;;1.60;;
14474;SDS011;7323;50.848;4.334;2024-03-25T13:55:34;4.70;;;1.50;;
14474;SDS011;7323;50.848;4.334;2024-03-25T13:58:00;4.20;;;2.70;;
14474;SDS011;7323;50.848;4.334;2024-03-25T14:00:26;4.33;;;2.10;;
14474;SDS011;7323;50.848;4.334;2024-03-25T14:02:53;4.90;;;1.97;;
14474;SDS011;7323;50.848;4.334;2024-03-25T14:05:20;4.27;;;1.90;;
14474;SDS011;7323;50.848;4.334;2024-03-25T14:07:46;3.47;;;1.93;;
14474;SDS011;7323;50.848;4.334;2024-03-25T14:10:12;4.43;;;1.73;;
14474;SDS011;7323;50.848;4.334;2024-03-25T14:12:38;4.80;;;2.00;;
14474;SDS011;7323;50.848;4.334;2024-03-25T14:15:04;6.07;;;2.30;;
14474;SDS011;7323;50.848;4.334;2024-03-25T14:17:31;4.83;;;2.30;;
14474;SDS011;7323;50.848;4.334;2024-03-25T14:19:57;3.67;;;1.67;;
14474;SDS011;7323;50.848;4.334;2024-03-25T14:22:23;3.10;;;1.80;;
14474;SDS011;7323;50.848;4.334;2024-03-25T14:24:49;4.83;;;2.57;;
14474;SDS011;7323;50.848;4.334;2024-03-25T14:27:14;4.17;;;2.00;;
14474;SDS011;7323;50.848;4.334;2024-03-25T14:29:40;4.60;;;2.20;;
14474;SDS011;7323;50.848;4.334;2024-03-25T14:32:07;3.43;;;2.00;;
14474;SDS011;7323;50.848;4.334;2024-03-25T14:34:33;5.47;;;2.37;;
14474;SDS011;7323;50.848;4.334;2024-03-25T14:36:59;4.57;;;2.10;;
14474;SDS011;7323;50.848;4.334;2024-03-25T14:39:26;7.97;;;1.87;;
14474;SDS011;7323;50.848;4.334;2024-03-25T14:41:52;3.80;;;1.80;;
14474;SDS011;7323;50.848;4.334;2024-03-25T14:44:18;4.57;;;1.90;;
14474;SDS011;7323;50.848;4.334;2024-03-25T14:46:44;6.00;;;2.57;;